Aeroporto :
LOGIN :

Iscrizione | Disclaimer

   EN    FR    IT 

 










Sommario :    VFR   VFR Marginale   IFR   IFR Intensivo   IFR Molto Intensivo
Visibilità : 
Base nubi : 
>= 8 km
>= 3000ft
5 / 8 km
1000 / 3000 ft
1500m / 5 km
500 / 1000 ft
800 / 1500m
200 / 500 ft
< 800m
< 200 ft
Simboli :   Temporali  Nebbia  Neve Forte  Precipitazioni Forti  Vento > 20 kt
SIGMETs :   Varie  Temporali  Ghiacco  Turbolenza  Onda orograficha  Ceneri Vulcaniche






- Altitudine del aeroporto : 181 ft


ESIB - Satenas AB

ULTIMO METAR :
  • 240650Z 21014KT 9999 -RA FEW006 BKN008 BKN016 07/07 Q1010

METARs OBSOLETI :
  • 240620Z 20014KT 9999 -RA FEW007 SCT008 BKN017 07/07 Q1010
  • 240550Z 20012KT 9999 -RA FEW007 SCT008 BKN010 07/07 Q1010
  • 240450Z AUTO 20011KT 9999 DZ FEW011/// SCT021/// OVC056/// 07/07 Q1011
  • 240420Z AUTO 20010KT 9999 -DZ BKN010/// BKN014/// OVC032/// 07/07 Q1011

TAF TAF ESIB
Valido dal 24 a 06 ore il 24 a 15 ore UTC


240600Z 2406/2415 21013KT 9999 SCT007 BKN012
PROB40 2406/2409 6000 RA BKN007
PROB40 2409/2413 4000 RADZ BKN005 RMK MIL



MetMap, La meteo Aeronautica in un colpo d'occhio ! - Copyright ORBIFLY Dicembre 2007 - Disclaimer

ORBIFLY MET'MAP TEAM :

Programmazione e sviluppo : Alexandra Zaïnal
Concezione : Baudouin d'Aumeries
Aiuto per la programmazione : Marc-Olivier Méhu
Supporto tecnico e logistico : Manuel Goepfert
Aiuto per la traduzione : Arnaldo La Scala

Contatto : metmap@orbifly.com




FONTI E CREDITI :

   NOAA